Jones, Minnesota
Current Conditions -  °F | °C
As of 2:32 AM on Friday 28 Nov 2014 (Local Time) from KBJI Reporting Station
Overcast Overcast  
Wind Chill: -6°   Ceiling: 3500
Heat Index:   Visibility: 10mi
Dew Point:   Wind: 8mph
Humidity: 80%   Direction: 120°ESE
Pressure: 30.05"   Gusts: NA
Location:  47.5271°N, 94.7611°W
Report Text: KBJI 280832Z AUTO 12007KT 10SM OVC035 M14/M17 A3005 RMK AO2 T11401167
Loading
Personal Weather Stations






























Interactive Weather Map New forecast layout! Learn more

10-Day Weather Forecast

Advertisements
Track Severe Weather on mobile